Time;durP1;ratioP1;P1;durP2;ratioP2;P2;SDS_P1;SDS_P2;PMS_P1;PMS_P2;Temp;Humidity;BMP_temperature;BMP_pressure;BME280_temperature;BME280_humidity;BME280_pressure;Samples;Min_cycle;Max_cycle;Signal;HPM_P1;HPM_P2
2022/09/11 00:01:27;;;;;;;6.38;3.53;;;;;;;12.23;100.00;101093.50;4990947;28;21261;-76
2022/09/11 00:03:55;;;;;;;6.05;4.20;;;;;;;12.14;100.00;101086.44;4975360;28;20495;-76
2022/09/11 00:06:22;;;;;;;7.15;3.63;;;;;;;12.15;100.00;101090.00;4982557;28;20137;-75
2022/09/11 00:08:52;;;;;;;8.48;4.38;;;;;;;12.06;100.00;101100.81;4995093;28;20026;-76
2022/09/11 00:11:20;;;;;;;8.82;4.25;;;;;;;11.93;100.00;101073.59;4983456;28;20087;-76
2022/09/11 00:13:48;;;;;;;7.65;5.57;;;;;;;12.23;100.00;101101.56;4989360;28;20456;-77
2022/09/11 00:16:47;;;;;;;8.95;4.05;;;;;;;12.44;100.00;101090.16;5007129;28;20033;-75
2022/09/11 00:19:16;;;;;;;7.65;3.70;;;;;;;12.72;100.00;101100.38;4989166;28;20041;-76
2022/09/11 00:21:42;;;;;;;6.70;3.85;;;;;;;12.90;100.00;101090.09;5008744;28;20069;-74
2022/09/11 00:24:08;;;;;;;10.23;4.05;;;;;;;13.09;100.00;101088.72;4975696;28;20069;-75
2022/09/11 00:26:35;;;;;;;5.85;4.38;;;;;;;13.17;100.00;101067.03;4991678;28;20034;-74
2022/09/11 00:29:02;;;;;;;5.43;3.75;;;;;;;13.38;100.00;101079.81;4973600;28;20388;-75
2022/09/11 00:31:29;;;;;;;9.10;3.80;;;;;;;13.49;100.00;101073.13;5007569;28;20088;-74
2022/09/11 00:33:55;;;;;;;6.72;3.30;;;;;;;13.60;100.00;101067.25;5001999;28;20030;-74
2022/09/11 00:36:24;;;;;;;11.50;3.60;;;;;;;13.70;100.00;101076.91;5005734;28;20049;-74
2022/09/11 00:38:50;;;;;;;7.40;3.20;;;;;;;13.74;100.00;101072.84;5007670;28;21353;-74
2022/09/11 00:41:23;;;;;;;5.20;3.30;;;;;;;13.80;100.00;101072.06;4985498;28;20038;-74
2022/09/11 00:43:51;;;;;;;6.65;3.17;;;;;;;13.82;100.00;101078.13;4994498;28;20026;-74
2022/09/11 00:46:17;;;;;;;4.88;3.10;;;;;;;13.83;100.00;101072.50;5007173;28;20471;-74
2022/09/11 00:48:48;;;;;;;7.38;3.40;;;;;;;13.82;100.00;101057.34;5005943;28;20390;-74
2022/09/11 00:51:21;;;;;;;6.05;2.72;;;;;;;13.85;100.00;101061.53;4993179;28;20550;-74
2022/09/11 00:53:49;;;;;;;5.80;3.45;;;;;;;13.85;100.00;101054.25;5006348;28;20026;-74
2022/09/11 00:56:15;;;;;;;6.65;3.15;;;;;;;13.79;100.00;101037.97;4990614;28;20126;-76
2022/09/11 00:58:42;;;;;;;9.45;3.28;;;;;;;13.79;100.00;101046.06;5008738;28;20491;-74
2022/09/11 01:01:09;;;;;;;4.75;2.75;;;;;;;13.78;100.00;101033.56;4991180;28;20121;-74
2022/09/11 01:03:35;;;;;;;6.85;3.22;;;;;;;13.63;100.00;101018.25;4988393;28;20029;-74
2022/09/11 01:06:01;;;;;;;7.43;3.95;;;;;;;13.68;100.00;101031.19;4990762;28;20483;-74
2022/09/11 01:08:26;;;;;;;3.80;2.90;;;;;;;13.60;100.00;101023.16;4985843;28;20428;-74
2022/09/11 01:11:04;;;;;;;5.65;3.13;;;;;;;13.67;100.00;101028.66;4989408;28;20149;-75
2022/09/11 01:13:43;;;;;;;9.40;4.50;;;;;;;13.53;100.00;101027.69;5003052;28;20030;-74
2022/09/11 01:16:16;;;;;;;8.20;3.78;;;;;;;13.41;100.00;101019.19;4975395;28;20040;-75
2022/09/11 01:18:52;;;;;;;;;;;;;;;13.28;100.00;101011.75;4991133;28;20473;-75
2022/09/11 01:21:24;;;;;;;9.50;3.75;;;;;;;13.10;100.00;101014.00;5002000;28;20371;-74
2022/09/11 01:24:28;;;;;;;7.50;4.07;;;;;;;12.93;100.00;101002.50;4987542;28;20030;-75
2022/09/11 01:27:19;;;;;;;5.72;3.58;;;;;;;12.74;100.00;100999.34;4945423;29;20441;-74
2022/09/11 01:30:00;;;;;;;8.05;4.53;;;;;;;12.61;100.00;100984.81;4984097;28;20141;-75
2022/09/11 01:32:51;;;;;;;6.72;3.97;;;;;;;12.59;100.00;100993.06;4987900;28;20065;-74
2022/09/11 01:35:23;;;;;;;8.82;3.97;;;;;;;12.54;100.00;100990.09;4991482;28;20140;-74
2022/09/11 01:38:10;;;;;;;5.28;3.97;;;;;;;12.52;100.00;100981.34;4973032;28;20118;-74
2022/09/11 01:40:54;;;;;;;11.63;4.45;;;;;;;12.54;100.00;100979.28;4987793;28;20128;-74
2022/09/11 01:43:29;;;;;;;7.68;4.00;;;;;;;12.52;100.00;100966.00;4994850;28;20041;-74
2022/09/11 01:46:01;;;;;;;7.43;3.97;;;;;;;12.59;100.00;100970.66;4987218;28;20028;-76
2022/09/11 01:48:46;;;;;;;7.82;4.10;;;;;;;12.62;100.00;100967.59;4998071;28;20164;-74
2022/09/11 01:51:16;;;;;;;10.95;4.25;;;;;;;12.57;100.00;100954.69;4972234;28;20042;-76
2022/09/11 01:53:45;;;;;;;7.20;4.05;;;;;;;12.62;100.00;100965.75;4985714;28;20030;-74
2022/09/11 01:56:18;;;;;;;8.98;3.97;;;;;;;12.54;100.00;100958.56;5020896;28;20048;-76
2022/09/11 01:58:44;;;;;;;18.60;4.47;;;;;;;12.43;100.00;100959.00;4983954;28;20137;-75
2022/09/11 02:01:18;;;;;;;10.02;4.40;;;;;;;12.44;100.00;100958.00;4991602;28;20049;-74
2022/09/11 02:03:58;;;;;;;7.57;4.43;;;;;;;12.55;100.00;100954.00;5009067;28;20037;-75
2022/09/11 02:06:29;;;;;;;9.48;4.88;;;;;;;12.50;100.00;100938.38;5008278;28;20430;-75
2022/09/11 02:09:00;;;;;;;9.05;4.15;;;;;;;12.61;100.00;100955.97;4985434;28;20124;-76
2022/09/11 02:11:29;;;;;;;9.90;4.82;;;;;;;12.74;100.00;100948.06;4999499;28;20392;-74
2022/09/11 02:14:20;;;;;;;10.07;4.00;;;;;;;12.80;100.00;100929.47;4973829;28;20516;-77
2022/09/11 02:16:52;;;;;;;7.22;3.85;;;;;;;12.92;100.00;100928.81;4987412;28;20036;-75
2022/09/11 02:19:27;;;;;;;5.60;3.08;;;;;;;13.06;100.00;100935.22;5003990;28;20033;-74
2022/09/11 02:21:53;;;;;;;12.07;4.60;;;;;;;13.10;100.00;100925.72;5010376;28;20034;-75
2022/09/11 02:24:21;;;;;;;7.82;3.70;;;;;;;13.19;100.00;100929.16;4990798;28;20041;-74
2022/09/11 02:26:51;;;;;;;8.02;4.43;;;;;;;13.22;100.00;100922.53;4973301;28;20387;-74
2022/09/11 02:29:17;;;;;;;7.93;3.60;;;;;;;13.15;100.00;100912.50;5005564;28;20052;-75
2022/09/11 02:31:43;;;;;;;8.85;3.88;;;;;;;13.17;100.00;100915.00;4989614;28;20041;-74
2022/09/11 02:34:10;;;;;;;6.25;3.80;;;;;;;13.20;100.00;100920.00;4989644;28;20125;-74
2022/09/11 02:36:48;;;;;;;4.88;3.83;;;;;;;13.17;100.00;100909.59;5004068;28;20034;-74
2022/09/11 02:39:48;;;;;;;6.35;3.80;;;;;;;13.15;100.00;100917.03;5007079;28;20491;-74
2022/09/11 02:42:37;;;;;;;6.63;3.58;;;;;;;13.20;100.00;100911.91;5014661;28;20034;-77
2022/09/11 02:45:21;;;;;;;8.85;4.10;;;;;;;13.21;100.00;100905.50;4992857;28;20125;-75
2022/09/11 02:48:10;;;;;;;7.35;4.20;;;;;;;13.17;100.00;100888.81;4986227;28;20275;-74
2022/09/11 02:50:41;;;;;;;5.30;3.83;;;;;;;13.29;100.00;100900.03;5030443;28;20329;-74
2022/09/11 02:53:16;;;;;;;6.43;4.22;;;;;;;13.29;100.00;100893.78;5009852;28;20017;-74
2022/09/11 02:55:55;;;;;;;6.32;4.03;;;;;;;13.38;100.00;100898.03;5006801;28;20054;-74
2022/09/11 02:58:26;;;;;;;6.10;3.53;;;;;;;13.41;100.00;100893.06;5006302;28;20033;-75
2022/09/11 03:00:56;;;;;;;5.78;3.78;;;;;;;13.46;100.00;100895.22;4993576;28;20080;-75
2022/09/11 03:03:22;;;;;;;7.13;4.28;;;;;;;13.51;100.00;100889.25;5026227;28;20030;-74
2022/09/11 03:05:47;;;;;;;9.27;4.35;;;;;;;13.58;100.00;100885.59;4977037;28;20263;-74
2022/09/11 03:08:16;;;;;;;10.57;4.30;;;;;;;13.68;100.00;100887.97;4977485;28;20404;-74
2022/09/11 03:10:45;;;;;;;8.65;3.80;;;;;;;13.78;100.00;100887.63;5003446;28;20019;-74
2022/09/11 03:13:14;;;;;;;9.63;4.70;;;;;;;13.82;100.00;100873.53;4993068;28;20034;-74
2022/09/11 03:15:42;;;;;;;9.32;3.97;;;;;;;13.79;100.00;100860.44;5009860;28;20037;-74
2022/09/11 03:18:09;;;;;;;8.50;4.00;;;;;;;13.80;100.00;100858.56;5008253;28;20041;-74
2022/09/11 03:20:35;;;;;;;15.85;4.05;;;;;;;13.84;100.00;100867.97;4994139;28;20060;-75
2022/09/11 03:23:00;;;;;;;7.15;3.67;;;;;;;13.85;100.00;100875.03;4980077;28;20465;-75
2022/09/11 03:25:27;;;;;;;12.93;4.50;;;;;;;13.70;100.00;100839.13;5009085;28;20164;-75
2022/09/11 03:27:53;;;;;;;8.38;3.60;;;;;;;13.82;100.00;100870.84;4992799;28;20030;-74
2022/09/11 03:30:20;;;;;;;6.20;3.78;;;;;;;13.83;100.00;100861.69;5007601;28;20050;-74
2022/09/11 03:32:45;;;;;;;6.15;3.95;;;;;;;13.80;100.00;100863.97;5012765;28;20030;-75
2022/09/11 03:35:11;;;;;;;9.15;4.30;;;;;;;13.74;100.00;100862.88;4987793;28;20082;-74
2022/09/11 03:37:36;;;;;;;7.10;3.97;;;;;;;13.77;100.00;100864.34;4971949;28;20042;-74
2022/09/11 03:40:03;;;;;;;7.90;3.85;;;;;;;13.77;100.00;100861.66;4976380;28;20116;-75
2022/09/11 03:42:29;;;;;;;7.05;4.28;;;;;;;13.73;100.00;100865.75;5011990;28;20030;-74
2022/09/11 03:44:54;;;;;;;8.85;3.63;;;;;;;13.68;100.00;100863.66;4981696;28;20041;-74
2022/09/11 03:47:21;;;;;;;8.57;4.50;;;;;;;13.67;100.00;100858.44;4976789;28;20026;-74
2022/09/11 03:49:47;;;;;;;7.60;3.67;;;;;;;13.63;100.00;100861.53;4981369;28;20031;-75
2022/09/11 03:52:13;;;;;;;6.65;3.83;;;;;;;13.51;100.00;100859.53;4993989;28;20069;-75
2022/09/11 03:54:39;;;;;;;5.15;2.42;;;;;;;13.44;100.00;100862.16;4994008;28;20490;-74
2022/09/11 03:57:05;;;;;;;7.78;4.15;;;;;;;13.37;100.00;100850.47;4995750;28;20037;-74
2022/09/11 03:59:31;;;;;;;6.85;3.50;;;;;;;13.35;100.00;100852.50;5009632;28;20037;-74
2022/09/11 04:01:57;;;;;;;7.03;3.47;;;;;;;13.25;100.00;100838.44;4993258;28;20030;-76
2022/09/11 04:04:23;;;;;;;5.10;3.20;;;;;;;13.23;100.00;100837.78;4988347;28;20029;-75
2022/09/11 04:06:48;;;;;;;7.25;4.13;;;;;;;13.20;100.00;100834.47;4993560;28;20042;-74
2022/09/11 04:09:14;;;;;;;7.68;4.13;;;;;;;13.19;100.00;100831.94;4984749;28;20081;-74
2022/09/11 04:11:40;;;;;;;10.95;4.40;;;;;;;13.19;100.00;100823.84;4993699;28;20476;-74
2022/09/11 04:14:06;;;;;;;10.77;4.40;;;;;;;13.18;100.00;100827.59;4979401;28;20416;-74
2022/09/11 04:16:33;;;;;;;7.53;3.97;;;;;;;13.20;100.00;100833.63;4981736;28;20472;-73
2022/09/11 04:19:00;;;;;;;11.15;4.18;;;;;;;13.14;100.00;100824.41;5016032;28;20850;-76
2022/09/11 04:21:26;;;;;;;8.20;3.67;;;;;;;13.12;100.00;100825.63;5023153;28;20121;-74
2022/09/11 04:23:54;;;;;;;9.82;3.83;;;;;;;13.13;100.00;100825.47;4998354;28;20120;-74
2022/09/11 04:26:21;;;;;;;8.55;4.68;;;;;;;13.12;100.00;100826.47;4995017;28;20030;-74
2022/09/11 04:28:47;;;;;;;10.90;4.72;;;;;;;13.06;100.00;100821.84;5002606;28;20092;-74
2022/09/11 04:31:14;;;;;;;11.52;4.90;;;;;;;13.04;100.00;100818.50;4981737;28;20073;-74
2022/09/11 04:33:40;;;;;;;8.65;5.00;;;;;;;13.02;100.00;100814.31;5006341;28;20451;-76
2022/09/11 04:36:08;;;;;;;8.45;5.00;;;;;;;12.96;100.00;100799.72;4978137;28;20041;-74
2022/09/11 04:38:35;;;;;;;6.07;4.15;;;;;;;13.00;100.00;100802.88;5008709;28;20033;-74
2022/09/11 04:41:05;;;;;;;15.00;4.72;;;;;;;13.01;100.00;100801.84;4985157;28;20033;-74
2022/09/11 04:43:32;;;;;;;8.95;4.38;;;;;;;12.98;100.00;100812.00;4986100;28;20484;-74
2022/09/11 04:46:16;;;;;;;11.57;5.13;;;;;;;12.97;100.00;100807.63;4999119;28;20034;-74
2022/09/11 04:48:47;;;;;;;8.07;4.10;;;;;;;12.94;100.00;100797.22;4980722;28;20038;-74
2022/09/11 04:51:26;;;;;;;8.18;4.30;;;;;;;12.92;100.00;100793.03;4977188;28;20172;-74
2022/09/11 04:53:56;;;;;;;8.65;4.43;;;;;;;12.90;100.00;100790.53;4991208;28;20037;-75
2022/09/11 04:56:24;;;;;;;7.78;5.00;;;;;;;12.93;100.00;100797.41;4994186;28;20034;-74
2022/09/11 04:58:55;;;;;;;8.00;4.75;;;;;;;12.93;100.00;100797.41;5007950;28;20039;-74
2022/09/11 05:01:21;;;;;;;8.55;4.40;;;;;;;12.89;100.00;100801.53;5009993;28;20080;-75
2022/09/11 05:03:47;;;;;;;10.85;4.95;;;;;;;12.84;100.00;100799.38;4994226;28;20030;-75
2022/09/11 05:06:15;;;;;;;9.57;4.13;;;;;;;12.82;100.00;100789.81;4973845;28;20053;-76
2022/09/11 05:08:45;;;;;;;8.00;4.55;;;;;;;12.86;100.00;100794.63;4987022;28;20032;-75
2022/09/11 05:11:12;;;;;;;14.27;5.28;;;;;;;12.83;100.00;100788.75;5004779;28;20038;-75
2022/09/11 05:13:39;;;;;;;10.23;4.95;;;;;;;12.83;100.00;100795.00;4976270;28;20483;-75
2022/09/11 05:16:08;;;;;;;9.68;5.53;;;;;;;12.84;100.00;100794.00;4989117;28;20038;-74
2022/09/11 05:18:34;;;;;;;15.98;5.30;;;;;;;12.86;100.00;100791.94;5007335;28;20029;-75
2022/09/11 05:21:06;;;;;;;14.88;4.43;;;;;;;12.87;100.00;100790.06;5001111;28;20030;-74
2022/09/11 05:23:31;;;;;;;7.75;4.85;;;;;;;12.97;100.00;100786.03;5006706;28;20084;-74
2022/09/11 05:25:58;;;;;;;10.05;6.20;;;;;;;12.86;100.00;100772.19;4988998;28;20046;-75
2022/09/11 05:28:28;;;;;;;12.55;5.40;;;;;;;12.95;100.00;100787.25;5007733;28;20034;-75
2022/09/11 05:30:54;;;;;;;11.35;5.28;;;;;;;12.94;100.00;100788.28;5006076;28;20088;-74
2022/09/11 05:33:22;;;;;;;13.35;4.85;;;;;;;12.94;100.00;100793.69;4992661;28;20061;-74
2022/09/11 05:35:49;;;;;;;11.13;4.97;;;;;;;12.90;100.00;100778.91;4990303;28;20472;-74
2022/09/11 05:38:16;;;;;;;10.82;5.68;;;;;;;12.94;100.00;100785.59;4991907;28;20077;-75
2022/09/11 05:40:44;;;;;;;12.27;4.90;;;;;;;12.93;100.00;100776.63;4972560;28;20041;-74
2022/09/11 05:43:09;;;;;;;5.72;3.80;;;;;;;12.90;100.00;100768.94;5005485;28;20040;-74
2022/09/11 05:45:35;;;;;;;9.23;5.30;;;;;;;12.90;100.00;100771.63;4973511;28;20463;-74
2022/09/11 05:48:02;;;;;;;11.75;5.85;;;;;;;12.91;100.00;100773.31;5005083;28;20041;-75
2022/09/11 05:50:30;;;;;;;15.65;5.22;;;;;;;12.93;100.00;100770.41;4990989;28;20026;-74
2022/09/11 05:52:56;;;;;;;11.30;5.35;;;;;;;12.88;100.00;100752.09;4973604;28;20042;-74
2022/09/11 05:55:21;;;;;;;12.60;4.40;;;;;;;12.89;100.00;100752.94;4988650;28;20047;-74
2022/09/11 05:57:47;;;;;;;12.15;5.32;;;;;;;12.89;100.00;100747.53;4971969;28;20034;-74
2022/09/11 06:00:13;;;;;;;9.43;4.25;;;;;;;12.85;100.00;100748.94;4990509;28;20080;-74
2022/09/11 06:02:39;;;;;;;8.23;4.10;;;;;;;12.84;100.00;100747.28;4972302;28;20376;-74
2022/09/11 06:05:05;;;;;;;10.15;4.53;;;;;;;12.84;100.00;100742.72;5007934;28;20036;-75
2022/09/11 06:07:31;;;;;;;7.00;4.50;;;;;;;12.82;100.00;100744.75;4990107;28;20115;-75
2022/09/11 06:09:58;;;;;;;8.25;3.40;;;;;;;12.83;100.00;100740.19;5004120;28;20033;-74
2022/09/11 06:12:26;;;;;;;6.00;2.20;;;;;;;12.80;100.00;100738.72;4982725;28;20030;-75
2022/09/11 06:14:51;;;;;;;4.05;2.05;;;;;;;12.83;100.00;100732.09;4992264;28;20080;-74
2022/09/11 06:17:17;;;;;;;0.20;0.20;;;;;;;12.86;100.00;100731.72;4974254;28;20038;-75
2022/09/11 06:19:43;;;;;;;0.22;0.22;;;;;;;12.82;100.00;100725.88;5001828;28;20026;-74
2022/09/11 06:22:09;;;;;;;0.30;0.30;;;;;;;12.81;100.00;100715.25;4977437;28;20301;-75
2022/09/11 06:24:34;;;;;;;0.30;0.30;;;;;;;12.82;100.00;100719.66;5005025;28;20073;-74
2022/09/11 06:27:00;;;;;;;0.47;0.47;;;;;;;12.79;100.00;100728.13;4989425;28;20049;-75
2022/09/11 06:29:25;;;;;;;0.40;0.40;;;;;;;12.83;100.00;100729.41;4967782;28;20388;-74
2022/09/11 06:31:51;;;;;;;0.20;0.20;;;;;;;12.74;100.00;100709.81;4974414;28;20049;-74
2022/09/11 06:34:18;;;;;;;0.73;0.55;;;;;;;12.83;100.00;100708.66;4987342;28;20042;-76
2022/09/11 06:36:44;;;;;;;0.20;0.20;;;;;;;12.84;100.00;100704.09;4987367;28;20534;-76
2022/09/11 06:39:10;;;;;;;0.20;0.20;;;;;;;12.84;100.00;100704.94;4975657;28;20030;-75
2022/09/11 06:41:36;;;;;;;0.20;0.20;;;;;;;12.84;100.00;100709.50;4985623;28;20370;-76
2022/09/11 06:44:05;;;;;;;0.30;0.30;;;;;;;12.85;100.00;100708.47;4989078;28;20030;-74
2022/09/11 06:46:30;;;;;;;0.30;0.30;;;;;;;12.85;100.00;100703.06;4972565;28;20037;-76
2022/09/11 06:48:56;;;;;;;1.25;0.70;;;;;;;12.88;100.00;100708.91;4967701;28;20037;-75
2022/09/11 06:51:22;;;;;;;1.52;1.48;;;;;;;12.89;100.00;100704.38;5012759;28;20400;-76
2022/09/11 06:54:01;;;;;;;0.30;0.30;;;;;;;12.90;100.00;100700.63;4990556;28;20438;-77
2022/09/11 06:56:28;;;;;;;0.20;0.20;;;;;;;12.93;100.00;100708.34;4991469;28;20042;-76
2022/09/11 06:58:54;;;;;;;0.30;0.30;;;;;;;12.93;100.00;100703.78;4988096;28;20038;-74
2022/09/11 07:01:21;;;;;;;0.30;0.30;;;;;;;12.93;100.00;100694.84;5006911;28;20477;-77
2022/09/11 07:03:49;;;;;;;0.40;0.40;;;;;;;12.95;100.00;100696.31;4974807;28;20057;-78
2022/09/11 07:06:17;;;;;;;0.20;0.20;;;;;;;12.91;100.00;100680.69;4972760;28;20093;-76
2022/09/11 07:08:43;;;;;;;0.30;0.30;;;;;;;13.02;100.00;100691.00;5005581;28;20030;-77
2022/09/11 07:11:11;;;;;;;0.30;0.30;;;;;;;13.05;100.00;100692.47;4966866;28;20039;-77
2022/09/11 07:13:38;;;;;;;0.30;0.30;;;;;;;13.08;100.00;100695.63;4989744;28;20091;-77
2022/09/11 07:16:06;;;;;;;0.30;0.30;;;;;;;13.11;100.00;100692.53;4969244;28;20046;-76
2022/09/11 07:18:36;;;;;;;0.30;0.30;;;;;;;13.17;100.00;100704.41;4989226;28;20476;-75
2022/09/11 07:21:06;;;;;;;0.30;0.30;;;;;;;13.18;100.00;100698.00;4977412;28;20129;-76
2022/09/11 07:23:35;;;;;;;0.30;0.30;;;;;;;13.23;100.00;100692.00;4973233;28;20503;-76
2022/09/11 07:26:05;;;;;;;0.30;0.30;;;;;;;13.25;100.00;100685.38;5006450;28;20120;-76
2022/09/11 07:28:31;;;;;;;0.20;0.20;;;;;;;13.27;100.00;100682.53;4991776;28;20026;-73
2022/09/11 07:31:11;;;;;;;0.30;0.30;;;;;;;13.29;100.00;100673.19;5011245;28;20415;-75
2022/09/11 07:33:47;;;;;;;0.30;0.30;;;;;;;13.28;100.00;100667.97;4997027;28;20065;-77
2022/09/11 07:36:18;;;;;;;0.20;0.20;;;;;;;13.28;100.00;100662.56;4992380;28;20042;-77
2022/09/11 07:38:45;;;;;;;0.30;0.30;;;;;;;13.28;100.00;100658.00;4990107;28;20132;-76
2022/09/11 07:41:13;;;;;;;0.30;0.30;;;;;;;13.10;100.00;100636.88;4974843;28;20392;-75
2022/09/11 07:43:44;;;;;;;0.30;0.30;;;;;;;13.28;100.00;100657.16;5004876;28;20184;-77
2022/09/11 07:46:11;;;;;;;0.30;0.30;;;;;;;13.17;100.00;100643.16;5007045;28;20034;-76
2022/09/11 07:48:37;;;;;;;0.30;0.30;;;;;;;13.22;100.00;100649.84;5005149;28;20500;-76
2022/09/11 07:51:05;;;;;;;0.30;0.30;;;;;;;13.24;100.00;100648.59;5006955;28;20386;-76
2022/09/11 07:53:42;;;;;;;0.30;0.30;;;;;;;13.23;100.00;100648.78;5008076;28;20037;-77
2022/09/11 07:56:10;;;;;;;0.30;0.30;;;;;;;13.04;100.00;100597.16;4991342;28;20049;-77
2022/09/11 07:58:38;;;;;;;0.20;0.20;;;;;;;13.23;100.00;100629.88;5010134;28;20030;-77
2022/09/11 08:01:05;;;;;;;0.30;0.30;;;;;;;13.24;100.00;100618.91;4992298;28;20499;-77
2022/09/11 08:03:32;;;;;;;0.30;0.30;;;;;;;13.27;100.00;100623.13;4981049;28;20033;-78
2022/09/11 08:05:58;;;;;;;0.30;0.30;;;;;;;13.24;100.00;100602.72;5008440;28;20033;-78
2022/09/11 08:08:25;;;;;;;0.30;0.30;;;;;;;13.35;100.00;100604.06;4986138;28;20030;-77
2022/09/11 08:10:51;;;;;;;0.30;0.30;;;;;;;13.40;100.00;100599.72;5008622;28;20030;-77
2022/09/11 08:13:17;;;;;;;0.38;0.38;;;;;;;13.43;100.00;100595.78;4975992;28;20894;-77
2022/09/11 08:15:49;;;;;;;0.30;0.30;;;;;;;13.48;100.00;100592.50;4990464;28;20054;-77
2022/09/11 08:18:15;;;;;;;0.40;0.40;;;;;;;13.47;100.00;100596.22;4993315;28;20046;-78
2022/09/11 08:20:41;;;;;;;0.60;0.60;;;;;;;13.43;100.00;100587.69;4993121;28;20042;-78
2022/09/11 08:23:08;;;;;;;0.30;0.30;;;;;;;13.47;100.00;100577.31;4995411;28;20037;-78
2022/09/11 08:25:35;;;;;;;0.30;0.30;;;;;;;13.49;100.00;100580.66;4971923;28;20025;-79
2022/09/11 08:28:01;;;;;;;0.40;0.40;;;;;;;13.48;100.00;100579.84;5005162;28;20488;-77
2022/09/11 08:30:26;;;;;;;0.30;0.30;;;;;;;13.50;100.00;100580.47;4994892;28;20033;-78
2022/09/11 08:32:52;;;;;;;0.30;0.30;;;;;;;13.54;100.00;100579.03;5015669;28;20029;-77
2022/09/11 08:35:18;;;;;;;0.32;0.32;;;;;;;13.59;100.00;100564.91;4978653;28;20467;-77
2022/09/11 08:37:43;;;;;;;0.30;0.30;;;;;;;13.63;100.00;100563.50;4977892;28;20049;-77
2022/09/11 08:40:10;;;;;;;0.30;0.30;;;;;;;13.69;100.00;100553.75;5011005;28;20204;-78
2022/09/11 08:42:40;;;;;;;0.40;0.40;;;;;;;13.82;100.00;100533.03;4976552;28;20053;-77
2022/09/11 08:45:06;;;;;;;0.30;0.30;;;;;;;13.83;100.00;100548.19;5008775;28;20055;-76
2022/09/11 08:47:36;;;;;;;0.30;0.30;;;;;;;13.91;100.00;100544.47;5009545;28;20033;-76
2022/09/11 08:50:11;;;;;;;0.30;0.30;;;;;;;13.89;100.00;100529.50;4974222;28;20551;-76
2022/09/11 08:52:37;;;;;;;0.40;0.40;;;;;;;14.00;100.00;100532.47;4995200;28;20022;-77
2022/09/11 08:55:05;;;;;;;0.30;0.30;;;;;;;13.98;100.00;100520.19;5006629;28;20119;-76
2022/09/11 08:57:58;;;;;;;0.50;0.50;;;;;;;14.05;100.00;100523.72;5005217;28;20048;-76
2022/09/11 09:00:31;;;;;;;0.45;0.45;;;;;;;14.06;100.00;100518.13;4986536;28;20026;-76
2022/09/11 09:03:13;;;;;;;;;;;;;;;14.04;100.00;100524.75;5005214;28;20084;-77
2022/09/11 09:06:12;;;;;;;1.10;0.93;;;;;;;14.02;100.00;100518.72;5004677;28;19913;-77
2022/09/11 09:08:54;;;;;;;0.30;0.30;;;;;;;14.02;100.00;100508.72;4990278;28;20042;-76
2022/09/11 09:11:39;;;;;;;0.32;0.32;;;;;;;14.05;100.00;100507.50;4991597;28;20057;-76
2022/09/11 09:14:31;;;;;;;0.43;0.43;;;;;;;14.05;100.00;100504.78;4991982;28;20077;-76
2022/09/11 09:17:11;;;;;;;0.50;0.50;;;;;;;14.07;100.00;100498.13;4974902;28;20040;-76
2022/09/11 09:19:51;;;;;;;0.60;0.60;;;;;;;14.07;100.00;100486.50;4973347;28;20037;-76
2022/09/11 09:22:21;;;;;;;0.50;0.50;;;;;;;14.16;100.00;100490.69;4989092;28;20117;-77
2022/09/11 09:24:49;;;;;;;0.30;0.30;;;;;;;14.21;100.00;100479.22;5002821;28;20467;-75
2022/09/11 09:27:29;;;;;;;0.40;0.40;;;;;;;14.27;100.00;100481.97;4992452;28;20092;-75
2022/09/11 09:29:58;;;;;;;0.30;0.30;;;;;;;14.27;100.00;100471.13;5006935;28;20025;-76
2022/09/11 09:32:33;;;;;;;0.40;0.40;;;;;;;14.39;100.00;100473.22;4998180;28;20056;-75
2022/09/11 09:35:02;;;;;;;0.43;0.43;;;;;;;14.40;100.00;100475.72;5004670;28;20026;-74
2022/09/11 09:37:28;;;;;;;0.30;0.30;;;;;;;14.38;100.00;100464.28;5003988;28;20072;-76
2022/09/11 09:39:54;;;;;;;0.30;0.30;;;;;;;14.44;100.00;100459.91;5003064;28;20030;-75
2022/09/11 09:42:29;;;;;;;0.30;0.30;;;;;;;14.49;100.00;100462.81;4977900;28;20018;-76
2022/09/11 09:45:10;;;;;;;0.30;0.30;;;;;;;14.56;100.00;100449.34;5003640;28;20029;-76
2022/09/11 09:47:40;;;;;;;0.30;0.30;;;;;;;14.67;100.00;100454.09;5009776;28;20373;-76
2022/09/11 09:50:16;;;;;;;0.30;0.30;;;;;;;14.68;100.00;100436.81;5002867;28;20042;-75
2022/09/11 09:52:45;;;;;;;0.20;0.20;;;;;;;14.70;100.00;100450.97;4988901;28;20037;-76
2022/09/11 09:55:16;;;;;;;0.30;0.30;;;;;;;14.75;100.00;100434.09;4968235;28;20456;-76
2022/09/11 09:57:42;;;;;;;0.30;0.30;;;;;;;14.70;100.00;100434.72;4987503;28;20041;-77
2022/09/11 10:00:08;;;;;;;0.40;0.40;;;;;;;14.71;100.00;100436.38;5008789;28;20368;-76
2022/09/11 10:02:40;;;;;;;0.20;0.20;;;;;;;14.74;100.00;100419.75;5004214;28;20104;-75
2022/09/11 10:05:18;;;;;;;0.30;0.30;;;;;;;14.90;100.00;100423.88;4989994;28;20041;-79
2022/09/11 10:07:49;;;;;;;0.30;0.30;;;;;;;14.78;100.00;100395.78;4999406;28;20477;-79
2022/09/11 10:10:28;;;;;;;0.30;0.30;;;;;;;14.92;100.00;100413.63;4990770;28;20374;-80
2022/09/11 10:12:56;;;;;;;0.30;0.30;;;;;;;14.98;100.00;100417.38;4990946;28;20069;-81
2022/09/11 10:15:22;;;;;;;0.40;0.40;;;;;;;15.09;100.00;100411.31;4986208;28;20042;-82
2022/09/11 10:17:49;;;;;;;0.32;0.32;;;;;;;15.12;100.00;100400.06;4972119;28;20033;-80
2022/09/11 10:20:17;;;;;;;0.20;0.20;;;;;;;15.22;100.00;100407.72;5005033;28;20079;-79
2022/09/11 10:22:43;;;;;;;0.30;0.30;;;;;;;15.31;100.00;100403.72;4992927;28;20101;-80
2022/09/11 10:25:12;;;;;;;0.30;0.30;;;;;;;15.36;100.00;100398.47;4981826;28;20117;-80
2022/09/11 10:28:18;;;;;;;0.30;0.30;;;;;;;15.47;100.00;100396.97;4995545;28;20026;-80
2022/09/11 10:30:52;;;;;;;0.30;0.30;;;;;;;15.48;100.00;100382.34;4978839;28;20480;-82
2022/09/11 10:33:30;;;;;;;;;;;;;;;15.64;100.00;100392.72;4987763;28;20137;-80
2022/09/11 10:36:01;;;;;;;0.32;0.32;;;;;;;15.78;100.00;100380.75;5007331;28;19957;-82
2022/09/11 10:38:53;;;;;;;0.40;0.40;;;;;;;15.85;100.00;100377.16;4976719;28;20040;-81
2022/09/11 10:41:24;;;;;;;0.30;0.30;;;;;;;15.87;100.00;100384.00;5000745;28;20038;-80
2022/09/11 10:43:59;;;;;;;0.30;0.30;;;;;;;15.82;100.00;100368.44;4990528;28;20038;-83
2022/09/11 10:46:37;;;;;;;0.30;0.30;;;;;;;15.99;100.00;100393.13;4985323;28;20030;-82
2022/09/11 10:49:08;;;;;;;0.30;0.30;;;;;;;15.97;100.00;100380.81;4972542;28;20472;-81
2022/09/11 10:51:36;;;;;;;0.30;0.30;;;;;;;16.00;100.00;100386.63;4988036;28;20058;-83
2022/09/11 10:54:24;;;;;;;0.30;0.30;;;;;;;16.10;100.00;100386.13;5019834;28;20034;-82
2022/09/11 10:56:59;;;;;;;0.30;0.30;;;;;;;16.22;100.00;100386.22;4991644;28;20450;-81
2022/09/11 10:59:41;;;;;;;0.30;0.30;;;;;;;16.29;100.00;100361.78;5006437;28;20076;-82
2022/09/11 11:02:20;;;;;;;0.30;0.30;;;;;;;16.33;100.00;100357.56;4993232;28;20042;-83
2022/09/11 11:04:46;;;;;;;0.40;0.40;;;;;;;16.61;100.00;100367.91;5008582;28;20052;-81
2022/09/11 11:07:28;;;;;;;0.30;0.30;;;;;;;16.87;100.00;100372.25;4996072;28;20057;-79
2022/09/11 11:10:03;;;;;;;0.30;0.30;;;;;;;17.06;100.00;100352.16;4983089;28;20957;-79
2022/09/11 11:13:04;;;;;;;0.40;0.40;;;;;;;17.42;100.00;100355.88;4997616;28;20104;-79
2022/09/11 11:15:55;;;;;;;0.30;0.30;;;;;;;17.72;100.00;100331.38;5003317;28;20388;-82
2022/09/11 11:18:30;;;;;;;0.30;0.30;;;;;;;17.79;100.00;100337.56;4994772;28;20037;-79
2022/09/11 11:21:07;;;;;;;0.30;0.30;;;;;;;17.85;100.00;100341.25;4981397;28;20188;-83
2022/09/11 11:23:48;;;;;;;0.38;0.38;;;;;;;17.81;100.00;100340.06;5009147;28;20030;-82
2022/09/11 11:26:41;;;;;;;0.30;0.30;;;;;;;17.76;100.00;100348.88;4994966;28;20037;-85
2022/09/11 11:29:31;;;;;;;0.30;0.30;;;;;;;17.91;100.00;100343.03;4992523;28;20460;-82
2022/09/11 11:32:19;;;;;;;0.30;0.30;;;;;;;17.94;100.00;100339.84;5007180;28;20461;-79
2022/09/11 11:35:17;;;;;;;0.20;0.20;;;;;;;17.82;100.00;100338.16;4988104;28;20030;-81